Time;durP1;ratioP1;P1;durP2;ratioP2;P2;SDS_P1;SDS_P2;PMS_P1;PMS_P2;Temp;Humidity;BMP_temperature;BMP_pressure;BME280_temperature;BME280_humidity;BME280_pressure;Samples;Min_cycle;Max_cycle;Signal;HPM_P1;HPM_P2
2023/11/17 00:01:43;;;;;;;6.32;5.22;;;;;;;6.34;87.34;97501.53;5035256;28;20033;-71
2023/11/17 00:04:09;;;;;;;5.35;4.85;;;;;;;6.40;88.40;97516.63;5034604;28;20032;-72
2023/11/17 00:06:34;;;;;;;5.38;4.88;;;;;;;6.32;87.11;97502.81;5033216;28;20057;-72
2023/11/17 00:09:01;;;;;;;6.13;5.50;;;;;;;6.28;87.17;97499.78;5033730;28;20057;-71
2023/11/17 00:11:27;;;;;;;6.95;5.22;;;;;;;6.35;87.62;97524.53;5033273;28;20075;-71
2023/11/17 00:13:53;;;;;;;5.53;5.00;;;;;;;6.33;87.47;97523.94;5020659;28;20504;-73
2023/11/17 00:16:19;;;;;;;7.00;6.28;;;;;;;6.25;87.63;97514.41;5016748;28;20513;-72
2023/11/17 00:18:44;;;;;;;7.38;6.68;;;;;;;6.28;87.76;97540.69;5031747;28;20103;-70
2023/11/17 00:21:14;;;;;;;8.52;7.63;;;;;;;6.17;88.07;97532.69;5032893;28;20051;-70
2023/11/17 00:23:40;;;;;;;10.85;8.77;;;;;;;6.26;87.99;97550.00;5033017;28;20017;-71
2023/11/17 00:26:05;;;;;;;10.38;9.30;;;;;;;6.17;88.25;97543.38;5032346;28;20040;-72
2023/11/17 00:28:40;;;;;;;10.43;9.18;;;;;;;6.21;88.24;97555.22;5032314;28;20104;-72
2023/11/17 00:31:13;;;;;;;12.32;9.38;;;;;;;6.25;88.26;97557.19;5034199;28;20033;-72
2023/11/17 00:33:40;;;;;;;11.68;9.52;;;;;;;6.30;88.18;97574.41;5032303;28;20101;-72
2023/11/17 00:36:08;;;;;;;11.82;9.70;;;;;;;6.34;89.16;97581.75;5027982;28;20044;-71
2023/11/17 00:38:36;;;;;;;12.00;10.10;;;;;;;6.37;87.90;97591.16;5049156;28;20496;-72
2023/11/17 00:41:02;;;;;;;14.63;10.90;;;;;;;6.41;88.36;97603.84;5036529;28;20036;-71
2023/11/17 00:43:29;;;;;;;13.00;10.07;;;;;;;6.47;87.98;97602.91;5032186;28;20448;-71
2023/11/17 00:45:58;;;;;;;15.23;11.30;;;;;;;6.43;87.82;97612.44;5032334;28;20052;-72
2023/11/17 00:48:30;;;;;;;14.38;11.40;;;;;;;6.45;87.81;97625.56;5048603;28;20091;-72
2023/11/17 00:50:57;;;;;;;12.07;10.48;;;;;;;6.49;88.33;97632.91;5032109;28;20033;-70
2023/11/17 00:53:25;;;;;;;15.35;11.93;;;;;;;6.45;88.44;97626.38;5026352;28;20017;-71
2023/11/17 00:55:52;;;;;;;17.50;12.65;;;;;;;6.48;88.40;97631.28;5033324;28;20033;-71
2023/11/17 00:58:19;;;;;;;14.55;11.80;;;;;;;6.49;88.50;97642.81;5031889;28;20096;-71
2023/11/17 01:00:45;;;;;;;15.02;11.98;;;;;;;6.42;88.25;97642.88;5032139;28;20091;-71
2023/11/17 01:03:11;;;;;;;16.95;12.07;;;;;;;6.48;88.83;97657.22;5033764;28;20094;-71
2023/11/17 01:05:36;;;;;;;19.73;13.57;;;;;;;6.48;88.40;97666.06;5014680;28;20497;-71
2023/11/17 01:08:01;;;;;;;17.40;13.18;;;;;;;6.50;88.81;97671.97;5031741;28;20022;-72
2023/11/17 01:10:27;;;;;;;14.25;11.82;;;;;;;6.49;88.07;97682.91;5014132;28;20401;-73
2023/11/17 01:12:53;;;;;;;13.73;12.40;;;;;;;6.44;88.71;97672.88;5014256;28;20025;-70
2023/11/17 01:15:19;;;;;;;18.45;12.65;;;;;;;6.56;89.13;97699.69;5031726;28;20037;-72
2023/11/17 01:17:45;;;;;;;15.20;12.10;;;;;;;6.61;89.42;97700.59;5047123;28;20036;-71
2023/11/17 01:20:12;;;;;;;16.70;12.68;;;;;;;6.65;88.66;97712.47;5030461;28;20129;-71
2023/11/17 01:22:39;;;;;;;14.60;12.88;;;;;;;6.66;87.94;97707.94;5047347;28;20018;-71
2023/11/17 01:25:05;;;;;;;14.35;12.75;;;;;;;6.67;87.89;97715.75;5031703;28;20044;-72
2023/11/17 01:27:30;;;;;;;17.42;12.25;;;;;;;6.72;87.82;97723.88;5010608;28;20026;-71
2023/11/17 01:29:56;;;;;;;18.48;13.20;;;;;;;6.75;88.22;97723.41;5009684;28;20033;-72
2023/11/17 01:32:22;;;;;;;17.23;14.52;;;;;;;6.76;88.19;97730.41;5031526;28;20109;-72
2023/11/17 01:34:48;;;;;;;18.92;14.57;;;;;;;6.71;88.37;97722.25;5013750;28;20033;-72
2023/11/17 01:37:13;;;;;;;16.35;13.65;;;;;;;6.69;88.63;97719.00;5029976;28;20781;-70
2023/11/17 01:39:39;;;;;;;19.63;13.98;;;;;;;6.79;88.34;97745.97;5029726;28;20029;-74
2023/11/17 01:42:04;;;;;;;18.20;13.05;;;;;;;6.67;89.08;97752.38;5031416;28;20056;-73
2023/11/17 01:44:29;;;;;;;16.13;13.07;;;;;;;6.66;88.94;97756.09;5046700;28;20041;-71
2023/11/17 01:46:55;;;;;;;14.50;12.35;;;;;;;6.60;89.10;97763.19;5046975;28;20071;-72
2023/11/17 01:49:22;;;;;;;17.33;12.13;;;;;;;6.64;88.82;97753.66;5046403;28;20048;-73
2023/11/17 01:51:47;;;;;;;16.40;12.80;;;;;;;6.67;88.95;97774.59;5047022;28;20132;-73
2023/11/17 01:54:14;;;;;;;16.33;11.75;;;;;;;6.58;88.49;97765.25;5046237;28;20030;-73
2023/11/17 01:56:40;;;;;;;13.80;10.25;;;;;;;6.66;88.95;97789.00;5046971;28;20444;-72
2023/11/17 01:59:06;;;;;;;14.32;11.10;;;;;;;6.60;88.43;97781.91;5041166;28;20033;-73
2023/11/17 02:01:34;;;;;;;13.60;10.68;;;;;;;6.69;88.37;97799.28;5031387;28;20040;-74
2023/11/17 02:04:00;;;;;;;14.55;10.45;;;;;;;6.67;87.92;97805.88;5031171;28;20160;-73
2023/11/17 02:06:40;;;;;;;13.60;10.13;;;;;;;6.69;88.10;97814.50;5046662;28;20026;-73
2023/11/17 02:09:25;;;;;;;11.60;10.40;;;;;;;6.60;88.47;97822.03;5039355;28;20405;-73
2023/11/17 02:12:04;;;;;;;12.13;9.90;;;;;;;6.60;88.38;97826.56;5024298;28;20041;-72
2023/11/17 02:14:32;;;;;;;11.90;9.15;;;;;;;6.60;88.11;97808.66;5030056;28;20401;-72
2023/11/17 02:17:00;;;;;;;11.63;9.18;;;;;;;6.61;88.13;97834.38;5046733;28;20150;-72
2023/11/17 02:19:37;;;;;;;11.43;9.18;;;;;;;6.67;87.73;97830.78;5029659;28;20493;-72
2023/11/17 02:22:08;;;;;;;12.85;9.82;;;;;;;6.69;87.93;97842.09;5026551;28;20034;-73
2023/11/17 02:24:44;;;;;;;14.40;9.73;;;;;;;6.69;87.57;97839.41;5022417;28;20029;-73
2023/11/17 02:27:29;;;;;;;11.45;9.65;;;;;;;6.57;87.56;97832.38;5026413;28;20033;-73
2023/11/17 02:30:02;;;;;;;10.70;9.60;;;;;;;6.69;87.83;97841.25;5029758;28;20057;-71
2023/11/17 02:32:29;;;;;;;12.98;9.90;;;;;;;6.71;87.96;97845.34;5029795;28;20029;-73
2023/11/17 02:34:55;;;;;;;12.35;10.40;;;;;;;6.74;88.39;97852.91;5029933;28;20048;-74
2023/11/17 02:37:24;;;;;;;14.90;10.35;;;;;;;6.78;87.74;97855.94;5012903;28;20071;-73
2023/11/17 02:39:54;;;;;;;12.80;10.88;;;;;;;6.66;88.66;97849.72;5026073;28;20014;-71
2023/11/17 02:42:24;;;;;;;15.15;11.02;;;;;;;6.72;87.65;97865.69;5024566;28;20037;-71
2023/11/17 02:44:50;;;;;;;16.50;11.63;;;;;;;6.63;89.06;97869.72;5033443;28;20026;-70
2023/11/17 02:47:27;;;;;;;12.98;11.18;;;;;;;6.60;88.00;97870.19;5041084;28;20040;-71
2023/11/17 02:49:53;;;;;;;12.85;11.55;;;;;;;6.50;88.14;97848.53;5036756;28;20522;-68
2023/11/17 02:52:24;;;;;;;13.07;11.23;;;;;;;6.70;88.50;97873.13;5033174;28;20033;-73
2023/11/17 02:54:50;;;;;;;13.82;11.40;;;;;;;6.78;88.21;97885.38;5045581;28;20099;-70
2023/11/17 02:57:19;;;;;;;13.57;11.02;;;;;;;6.73;88.52;97886.06;5016354;28;20559;-71
2023/11/17 02:59:45;;;;;;;13.50;11.00;;;;;;;6.76;88.70;97893.66;4997252;28;20037;-71
2023/11/17 03:02:15;;;;;;;13.73;10.60;;;;;;;6.68;88.42;97882.41;5028582;28;20448;-71
2023/11/17 03:04:42;;;;;;;13.82;10.73;;;;;;;6.73;88.63;97906.66;5033399;28;20408;-72
2023/11/17 03:07:07;;;;;;;12.52;10.50;;;;;;;6.64;88.16;97897.31;5049500;28;20397;-72
2023/11/17 03:09:32;;;;;;;15.10;11.18;;;;;;;6.73;88.22;97918.16;5033633;28;20049;-72
2023/11/17 03:11:59;;;;;;;17.60;11.65;;;;;;;6.61;87.76;97903.09;5049162;28;20038;-70
2023/11/17 03:14:25;;;;;;;15.25;12.18;;;;;;;6.67;88.27;97934.31;5049315;28;20045;-72
2023/11/17 03:16:55;;;;;;;13.35;10.90;;;;;;;6.71;89.05;97940.84;5032927;28;20022;-72
2023/11/17 03:19:23;;;;;;;12.40;10.20;;;;;;;6.70;88.20;97929.31;5029012;28;20029;-74
2023/11/17 03:21:49;;;;;;;13.30;10.80;;;;;;;6.66;88.64;97941.53;5029099;28;20190;-73
2023/11/17 03:24:17;;;;;;;12.95;9.40;;;;;;;6.55;89.15;97928.09;5029243;28;20676;-74
2023/11/17 03:26:52;;;;;;;12.35;9.80;;;;;;;6.59;89.16;97943.47;5029580;28;20025;-74
2023/11/17 03:29:18;;;;;;;12.63;9.20;;;;;;;6.67;88.29;97951.19;5032238;28;20564;-74
2023/11/17 03:31:52;;;;;;;14.15;9.25;;;;;;;6.60;88.66;97961.16;5032372;28;20025;-74
2023/11/17 03:34:31;;;;;;;15.20;9.88;;;;;;;6.59;89.06;97954.16;5032461;28;20120;-72
2023/11/17 03:37:04;;;;;;;13.52;9.70;;;;;;;6.62;88.98;97959.06;5020265;28;20612;-75
2023/11/17 03:39:42;;;;;;;15.93;10.82;;;;;;;6.58;88.89;97967.78;5015367;28;20699;-74
2023/11/17 03:42:12;;;;;;;14.15;10.63;;;;;;;6.60;88.49;97979.06;5032360;28;20044;-72
2023/11/17 03:44:37;;;;;;;14.88;9.60;;;;;;;6.59;88.70;97978.25;5032407;28;20045;-72
2023/11/17 03:47:06;;;;;;;12.07;9.57;;;;;;;6.50;88.79;97981.44;5032364;28;20025;-73
2023/11/17 03:49:33;;;;;;;14.93;9.20;;;;;;;6.49;89.18;97991.31;5032038;28;20041;-70
2023/11/17 03:51:59;;;;;;;11.57;9.60;;;;;;;6.44;89.59;97985.81;5028459;28;20402;-71
2023/11/17 03:54:25;;;;;;;11.68;10.13;;;;;;;6.48;89.77;97999.56;5028805;28;20045;-73
2023/11/17 03:56:54;;;;;;;12.75;9.80;;;;;;;6.50;89.12;98003.66;5048611;28;20031;-79
2023/11/17 03:59:21;;;;;;;15.63;10.13;;;;;;;6.51;89.52;98004.50;5031909;28;20029;-74
2023/11/17 04:01:47;;;;;;;13.95;9.95;;;;;;;6.46;88.98;97997.13;5032142;28;20112;-72
2023/11/17 04:04:15;;;;;;;15.27;10.30;;;;;;;6.50;89.25;98014.38;5048349;28;20056;-73
2023/11/17 04:06:54;;;;;;;13.07;9.48;;;;;;;6.48;89.08;98007.59;5015534;28;20560;-74
2023/11/17 04:09:21;;;;;;;16.48;10.40;;;;;;;6.48;88.73;98011.09;5015268;28;20044;-71
2023/11/17 04:11:51;;;;;;;17.90;10.23;;;;;;;6.53;88.91;98023.81;5032992;28;20397;-72
2023/11/17 04:14:19;;;;;;;14.43;10.07;;;;;;;6.48;89.21;98016.44;5031580;28;20493;-72
2023/11/17 04:16:46;;;;;;;15.98;11.63;;;;;;;6.43;89.15;98010.94;5015061;28;20138;-72
2023/11/17 04:19:14;;;;;;;16.05;11.20;;;;;;;6.49;88.93;98023.41;5014980;28;20064;-71
2023/11/17 04:21:39;;;;;;;12.98;10.35;;;;;;;6.47;89.00;98033.53;4998703;28;20057;-72
2023/11/17 04:24:06;;;;;;;13.30;10.32;;;;;;;6.35;89.21;98032.63;5031351;28;20063;-72
2023/11/17 04:26:31;;;;;;;17.98;11.00;;;;;;;6.33;88.84;98036.56;5032676;28;20558;-72
2023/11/17 04:28:57;;;;;;;16.85;11.30;;;;;;;6.24;89.61;98047.56;5025890;28;20033;-72
2023/11/17 04:31:23;;;;;;;14.93;10.88;;;;;;;6.13;89.23;98031.41;5047928;28;20401;-71
2023/11/17 04:33:49;;;;;;;17.25;12.27;;;;;;;6.22;89.23;98048.81;5047753;28;20037;-71
2023/11/17 04:36:14;;;;;;;14.30;11.50;;;;;;;6.14;89.20;98046.41;5032415;28;20389;-72
2023/11/17 04:38:40;;;;;;;13.50;11.95;;;;;;;6.13;89.08;98052.81;5031039;28;20037;-72
2023/11/17 04:41:05;;;;;;;16.17;11.88;;;;;;;6.11;88.99;98058.34;5030718;28;20109;-72
2023/11/17 04:43:31;;;;;;;18.17;11.90;;;;;;;6.09;89.08;98060.44;5032200;28;20033;-72
2023/11/17 04:45:56;;;;;;;15.07;12.27;;;;;;;6.10;88.92;98063.94;5047511;28;20442;-72
2023/11/17 04:48:23;;;;;;;15.95;12.00;;;;;;;6.03;88.81;98072.00;5047201;28;20132;-72
2023/11/17 04:50:48;;;;;;;14.85;12.75;;;;;;;6.02;88.69;98059.66;5032203;28;20022;-72
2023/11/17 04:53:14;;;;;;;17.98;13.23;;;;;;;5.98;88.62;98063.00;5047576;28;20045;-72
2023/11/17 04:55:41;;;;;;;18.30;12.82;;;;;;;6.10;88.72;98071.94;5032127;28;20108;-72
2023/11/17 04:58:07;;;;;;;14.15;11.90;;;;;;;6.14;88.71;98068.63;5047167;28;20458;-70
2023/11/17 05:00:33;;;;;;;16.75;12.57;;;;;;;6.04;88.14;98059.47;5031055;28;20112;-73
2023/11/17 05:03:02;;;;;;;15.13;13.32;;;;;;;6.13;88.83;98091.06;5036517;28;20037;-72
2023/11/17 05:05:27;;;;;;;18.52;13.15;;;;;;;6.13;88.59;98087.56;5031656;28;20025;-75
2023/11/17 05:07:53;;;;;;;17.30;14.18;;;;;;;5.97;89.10;98077.41;5027365;28;20510;-72
2023/11/17 05:10:19;;;;;;;19.48;12.18;;;;;;;5.99;88.29;98102.06;5009531;28;20020;-73
2023/11/17 05:12:48;;;;;;;16.98;12.48;;;;;;;6.00;88.58;98109.03;5030555;28;20041;-73
2023/11/17 05:15:14;;;;;;;17.63;12.55;;;;;;;5.93;88.94;98103.75;5029317;28;20374;-74
2023/11/17 05:17:43;;;;;;;13.95;12.10;;;;;;;5.93;88.49;98113.59;5031414;28;20076;-71
2023/11/17 05:20:13;;;;;;;18.38;12.73;;;;;;;5.83;88.47;98108.72;5030642;28;20125;-74
2023/11/17 05:22:40;;;;;;;14.77;11.80;;;;;;;5.82;88.51;98106.25;5046973;28;20037;-73
2023/11/17 05:25:06;;;;;;;17.85;13.32;;;;;;;5.62;88.37;98105.59;5014914;28;20033;-72
2023/11/17 05:27:34;;;;;;;14.50;11.85;;;;;;;5.64;88.47;98111.53;5046565;28;20504;-71
2023/11/17 05:30:00;;;;;;;12.93;11.43;;;;;;;5.67;89.44;98129.81;5031248;28;20025;-73
2023/11/17 05:32:26;;;;;;;13.85;11.70;;;;;;;5.63;89.21;98124.06;5030255;28;20432;-72
2023/11/17 05:34:52;;;;;;;13.45;12.05;;;;;;;5.57;88.86;98136.44;5030385;28;20035;-73
2023/11/17 05:37:18;;;;;;;13.35;10.98;;;;;;;5.56;89.28;98137.47;5046690;28;20064;-74
2023/11/17 05:39:46;;;;;;;13.15;10.18;;;;;;;5.60;88.37;98138.66;5030107;28;20030;-73
2023/11/17 05:42:12;;;;;;;14.30;10.75;;;;;;;5.52;88.49;98138.09;5027120;28;20103;-71
2023/11/17 05:44:37;;;;;;;15.77;9.90;;;;;;;5.43;89.14;98156.22;5031526;28;20037;-73
2023/11/17 05:47:03;;;;;;;12.30;9.77;;;;;;;5.44;88.90;98149.84;5030636;28;20112;-72
2023/11/17 05:49:28;;;;;;;11.25;8.60;;;;;;;5.44;88.21;98157.84;5042717;28;20029;-73
2023/11/17 05:51:54;;;;;;;11.23;8.98;;;;;;;5.46;87.97;98166.47;5034747;28;20043;-73
2023/11/17 05:54:20;;;;;;;14.40;9.05;;;;;;;5.38;88.32;98164.06;5032124;28;20635;-73
2023/11/17 05:56:47;;;;;;;11.95;9.63;;;;;;;5.22;87.45;98147.69;5031771;28;20037;-73
2023/11/17 05:59:12;;;;;;;29.38;26.38;;;;;;;5.28;86.39;98169.00;5031008;28;20025;-71
2023/11/17 06:01:40;;;;;;;16.92;15.18;;;;;;;5.21;85.81;98162.88;5030180;28;20033;-72
2023/11/17 06:04:08;;;;;;;11.52;8.40;;;;;;;5.21;86.16;98172.72;5029895;28;20026;-72
2023/11/17 06:06:34;;;;;;;34.20;30.88;;;;;;;5.24;85.53;98183.00;5029991;28;20048;-73
2023/11/17 06:08:59;;;;;;;11.63;10.23;;;;;;;5.21;84.76;98184.22;5031056;28;20021;-72
2023/11/17 06:11:25;;;;;;;12.48;8.07;;;;;;;5.24;85.13;98185.66;5046864;28;20061;-72
2023/11/17 06:13:50;;;;;;;14.13;10.50;;;;;;;5.21;85.40;98184.22;5030100;28;20508;-71
2023/11/17 06:16:16;;;;;;;8.32;7.53;;;;;;;5.18;84.87;98184.66;5047821;28;20091;-73
2023/11/17 06:18:42;;;;;;;7.32;6.63;;;;;;;5.22;85.15;98185.06;5050193;28;20056;-73
2023/11/17 06:21:07;;;;;;;8.68;7.00;;;;;;;5.22;84.93;98191.22;5033998;28;20029;-73
2023/11/17 06:23:33;;;;;;;12.75;8.13;;;;;;;5.27;84.82;98212.78;5050563;28;20560;-72
2023/11/17 06:25:59;;;;;;;8.38;6.70;;;;;;;5.28;84.85;98214.41;5034195;28;20041;-73
2023/11/17 06:28:24;;;;;;;8.45;7.38;;;;;;;5.28;84.88;98217.06;5050284;28;20107;-74
2023/11/17 06:30:50;;;;;;;7.45;6.65;;;;;;;5.26;84.68;98211.13;5034008;28;20036;-73
2023/11/17 06:33:16;;;;;;;10.43;7.07;;;;;;;5.25;83.99;98206.81;5027270;28;20036;-73
2023/11/17 06:35:41;;;;;;;7.43;6.72;;;;;;;5.33;83.97;98217.25;5034471;28;20025;-72
2023/11/17 06:38:08;;;;;;;9.52;7.13;;;;;;;5.32;84.15;98222.81;5032979;28;20025;-71
2023/11/17 06:40:34;;;;;;;9.50;7.43;;;;;;;5.37;83.35;98226.50;5034512;28;20045;-72
2023/11/17 06:42:59;;;;;;;11.80;7.40;;;;;;;5.33;84.29;98224.44;5033322;28;20077;-73
2023/11/17 06:45:25;;;;;;;8.50;7.13;;;;;;;5.36;83.31;98234.72;5034489;28;20037;-73
2023/11/17 06:47:51;;;;;;;10.77;7.30;;;;;;;5.29;83.40;98218.72;5033099;28;20025;-73
2023/11/17 06:50:17;;;;;;;7.93;7.10;;;;;;;5.37;83.33;98237.16;5016806;28;20069;-73
2023/11/17 06:52:44;;;;;;;9.65;7.85;;;;;;;5.33;83.12;98235.97;5049564;28;20068;-73
2023/11/17 06:55:09;;;;;;;10.48;8.15;;;;;;;5.25;83.38;98228.16;5037410;28;20030;-71
2023/11/17 06:57:35;;;;;;;9.25;8.02;;;;;;;5.34;83.14;98244.78;5033132;28;20056;-71
2023/11/17 07:00:01;;;;;;;11.70;7.88;;;;;;;5.29;83.71;98244.59;5033866;28;20080;-73
2023/11/17 07:02:28;;;;;;;7.85;6.60;;;;;;;5.24;83.83;98242.56;5013625;28;20033;-75
2023/11/17 07:04:54;;;;;;;10.02;6.93;;;;;;;5.32;83.33;98255.66;5034069;28;20033;-75
2023/11/17 07:07:19;;;;;;;11.73;7.80;;;;;;;5.36;82.71;98256.91;5032433;28;20026;-74
2023/11/17 07:09:45;;;;;;;19.23;14.02;;;;;;;5.18;82.59;98254.06;5034157;28;20036;-75
2023/11/17 07:12:11;;;;;;;27.30;21.88;;;;;;;5.14;82.78;98260.84;5034077;28;20067;-75
2023/11/17 07:14:36;;;;;;;25.10;20.00;;;;;;;4.99;82.68;98254.94;5034061;28;20497;-75
2023/11/17 07:17:04;;;;;;;24.98;19.33;;;;;;;4.91;82.96;98247.13;5032706;28;20032;-75
2023/11/17 07:19:32;;;;;;;19.77;15.13;;;;;;;5.06;83.48;98277.09;5032245;28;20052;-75
2023/11/17 07:21:58;;;;;;;20.92;13.88;;;;;;;5.00;83.09;98271.75;5027421;28;20025;-74
2023/11/17 07:24:23;;;;;;;17.35;13.48;;;;;;;5.03;83.62;98293.50;5032571;28;20029;-75
2023/11/17 07:26:49;;;;;;;25.55;18.65;;;;;;;5.05;83.08;98296.78;5032406;28;20457;-75
2023/11/17 07:29:15;;;;;;;18.85;15.43;;;;;;;5.01;83.91;98289.41;5015621;28;20033;-74
2023/11/17 07:31:45;;;;;;;16.50;14.60;;;;;;;5.11;83.59;98293.28;5031568;28;20123;-75
2023/11/17 07:34:17;;;;;;;17.15;12.73;;;;;;;5.06;83.66;98290.44;5032320;28;20486;-75
2023/11/17 07:36:44;;;;;;;19.73;14.38;;;;;;;5.14;83.67;98298.22;5032606;28;20112;-75
2023/11/17 07:39:12;;;;;;;18.67;13.13;;;;;;;5.20;83.52;98305.41;4998882;28;20104;-75
2023/11/17 07:41:41;;;;;;;20.13;14.38;;;;;;;5.23;84.08;98310.31;5032363;28;20064;-75
2023/11/17 07:44:08;;;;;;;15.00;13.15;;;;;;;5.15;84.62;98302.53;5032155;28;20017;-75
2023/11/17 07:46:36;;;;;;;19.20;15.23;;;;;;;5.21;83.81;98312.38;5048676;28;20053;-76
2023/11/17 07:49:11;;;;;;;21.33;17.67;;;;;;;5.06;83.82;98301.13;5031636;28;20017;-74
2023/11/17 07:51:37;;;;;;;18.23;14.20;;;;;;;5.14;84.02;98321.41;5033631;28;20041;-75
2023/11/17 07:54:04;;;;;;;18.90;11.65;;;;;;;5.16;84.41;98330.06;5048288;28;20041;-73
2023/11/17 07:56:29;;;;;;;15.63;11.85;;;;;;;5.17;83.91;98326.34;5032175;28;20030;-75
2023/11/17 07:58:56;;;;;;;16.65;13.40;;;;;;;5.14;84.18;98316.91;5048323;28;20508;-74
2023/11/17 08:01:23;;;;;;;20.10;13.60;;;;;;;5.23;84.36;98337.00;5048470;28;20448;-75
2023/11/17 08:03:48;;;;;;;16.42;12.82;;;;;;;5.25;84.47;98337.63;5048219;28;20025;-75
2023/11/17 08:06:14;;;;;;;13.43;11.60;;;;;;;5.27;83.93;98338.25;5048402;28;20044;-75
2023/11/17 08:08:40;;;;;;;17.45;11.75;;;;;;;5.10;84.06;98309.50;5048072;28;20036;-75
2023/11/17 08:11:08;;;;;;;24.75;18.00;;;;;;;5.41;84.29;98339.84;5048367;28;20033;-75
2023/11/17 08:13:33;;;;;;;27.35;21.27;;;;;;;5.41;84.42;98326.50;5032733;28;20056;-75
2023/11/17 08:15:59;;;;;;;23.38;16.50;;;;;;;5.52;84.36;98347.25;5031618;28;20119;-75
2023/11/17 08:18:24;;;;;;;17.30;13.68;;;;;;;5.51;84.14;98332.25;5048000;28;20022;-75
2023/11/17 08:20:50;;;;;;;14.98;12.60;;;;;;;5.58;84.07;98341.06;5048335;28;20037;-75
2023/11/17 08:23:16;;;;;;;15.55;12.50;;;;;;;5.58;83.76;98329.56;5048158;28;20155;-74
2023/11/17 08:25:42;;;;;;;17.02;12.93;;;;;;;5.66;84.18;98339.19;5048557;28;20037;-74
2023/11/17 08:28:07;;;;;;;15.90;13.50;;;;;;;5.66;84.37;98334.69;5032342;28;20109;-75
2023/11/17 08:30:33;;;;;;;16.08;14.02;;;;;;;5.74;83.96;98344.31;5031367;28;20119;-72
2023/11/17 08:32:59;;;;;;;18.27;16.35;;;;;;;5.58;84.34;98319.69;5047914;28;20540;-75
2023/11/17 08:35:24;;;;;;;17.08;14.13;;;;;;;5.67;84.72;98349.66;5028744;28;20046;-75
2023/11/17 08:37:52;;;;;;;18.52;15.57;;;;;;;5.75;83.99;98352.13;5030967;28;20478;-74
2023/11/17 08:40:19;;;;;;;18.23;16.02;;;;;;;5.80;85.04;98343.47;5012779;28;20651;-75
2023/11/17 08:42:44;;;;;;;15.55;13.90;;;;;;;5.88;84.93;98356.66;5014760;28;20048;-74
2023/11/17 08:45:12;;;;;;;11.43;10.43;;;;;;;5.89;84.85;98356.44;5031431;28;20478;-72
2023/11/17 08:47:39;;;;;;;11.20;9.95;;;;;;;6.01;84.00;98351.25;5035652;28;20025;-72
2023/11/17 08:50:06;;;;;;;15.05;9.50;;;;;;;6.08;84.20;98352.03;5007109;28;20033;-72
2023/11/17 08:52:34;;;;;;;12.52;8.60;;;;;;;6.17;84.21;98351.59;5028008;28;20041;-72
2023/11/17 08:55:04;;;;;;;11.18;8.60;;;;;;;6.25;82.92;98358.56;5051115;28;20509;-72
2023/11/17 08:57:30;;;;;;;10.43;8.45;;;;;;;6.13;83.21;98354.91;5046952;28;20037;-71
2023/11/17 08:59:55;;;;;;;8.32;7.57;;;;;;;6.21;82.59;98365.34;5047092;28;20064;-72
2023/11/17 09:02:20;;;;;;;10.48;8.38;;;;;;;6.18;81.56;98357.78;5031969;28;20037;-72
2023/11/17 09:04:47;;;;;;;8.90;7.47;;;;;;;6.21;81.08;98363.50;5030809;28;20492;-73
2023/11/17 09:07:12;;;;;;;8.32;7.53;;;;;;;6.24;81.22;98372.94;5031124;28;20041;-73
2023/11/17 09:09:37;;;;;;;9.15;7.68;;;;;;;6.25;80.56;98369.25;5030436;28;20029;-71
2023/11/17 09:12:04;;;;;;;10.25;7.70;;;;;;;6.23;80.70;98377.47;5046961;28;20444;-72
2023/11/17 09:14:31;;;;;;;8.75;7.65;;;;;;;6.28;80.22;98385.69;5046874;28;20432;-72
2023/11/17 09:16:56;;;;;;;9.48;7.90;;;;;;;6.20;80.26;98371.75;5047618;28;20044;-73
2023/11/17 09:19:25;;;;;;;7.93;7.13;;;;;;;6.21;80.15;98373.38;4994945;28;20394;-72
2023/11/17 09:21:50;;;;;;;11.35;8.27;;;;;;;6.34;80.40;98386.69;5028631;28;20045;-72
2023/11/17 09:24:15;;;;;;;10.48;8.20;;;;;;;6.30;80.48;98382.00;5031935;28;20017;-71
2023/11/17 09:26:41;;;;;;;10.20;7.47;;;;;;;6.29;80.90;98381.16;5044741;28;20455;-71
2023/11/17 09:29:07;;;;;;;7.53;6.82;;;;;;;6.28;80.16;98387.53;5033079;28;20021;-71
2023/11/17 09:31:32;;;;;;;9.82;7.97;;;;;;;6.27;79.56;98396.59;5033997;28;20092;-72
2023/11/17 09:33:58;;;;;;;8.60;6.35;;;;;;;6.28;79.10;98390.22;5031500;28;20021;-72
2023/11/17 09:36:23;;;;;;;9.02;6.13;;;;;;;6.24;79.12;98389.00;5046890;28;20048;-74
2023/11/17 09:38:49;;;;;;;8.55;6.60;;;;;;;6.38;78.32;98403.94;5030160;28;20025;-74
2023/11/17 09:41:14;;;;;;;6.63;5.97;;;;;;;6.38;78.53;98389.75;5029837;28;20521;-73
2023/11/17 09:43:43;;;;;;;6.53;5.60;;;;;;;6.50;78.25;98399.59;5046524;28;20495;-73
2023/11/17 09:46:10;;;;;;;8.85;5.88;;;;;;;6.58;77.94;98402.00;5030177;28;20145;-73
2023/11/17 09:48:37;;;;;;;7.30;5.32;;;;;;;6.46;77.16;98406.41;5031214;28;20088;-72
2023/11/17 09:51:03;;;;;;;7.40;5.40;;;;;;;6.49;77.16;98397.94;5047100;28;20087;-72
2023/11/17 09:53:32;;;;;;;8.45;5.47;;;;;;;6.52;76.26;98397.50;5050764;28;20474;-72
2023/11/17 09:55:58;;;;;;;5.72;5.10;;;;;;;6.42;76.90;98407.84;5035438;28;20037;-73
2023/11/17 09:58:26;;;;;;;7.80;4.95;;;;;;;6.42;75.10;98386.44;5033763;28;20492;-72
2023/11/17 10:00:51;;;;;;;5.15;4.70;;;;;;;6.48;75.10;98390.97;5035250;28;20049;-72
2023/11/17 10:03:19;;;;;;;5.65;4.60;;;;;;;6.44;74.66;98405.78;5034056;28;20033;-72
2023/11/17 10:05:44;;;;;;;5.60;4.60;;;;;;;6.58;74.68;98402.00;5050786;28;20405;-71
2023/11/17 10:08:13;;;;;;;6.93;5.78;;;;;;;6.65;75.29;98410.81;5050486;28;20022;-71
2023/11/17 10:10:44;;;;;;;9.43;6.20;;;;;;;6.63;75.90;98410.22;5050411;28;20033;-71
2023/11/17 10:13:13;;;;;;;8.60;6.82;;;;;;;6.71;75.45;98391.25;5031889;28;20057;-72
2023/11/17 10:15:41;;;;;;;9.15;6.25;;;;;;;6.96;75.98;98405.47;5048377;28;20029;-71
2023/11/17 10:18:08;;;;;;;7.05;5.55;;;;;;;7.03;75.91;98409.97;5048380;28;20086;-71
2023/11/17 10:20:35;;;;;;;7.38;5.10;;;;;;;6.94;74.86;98404.06;5032101;28;20184;-72
2023/11/17 10:23:02;;;;;;;7.75;5.35;;;;;;;6.97;73.93;98412.50;5031856;28;20091;-72
2023/11/17 10:25:27;;;;;;;6.47;4.43;;;;;;;6.89;74.24;98410.06;5015595;28;20021;-71
2023/11/17 10:27:53;;;;;;;4.20;3.80;;;;;;;6.93;73.99;98405.09;5032918;28;20041;-72
2023/11/17 10:30:19;;;;;;;6.85;5.18;;;;;;;6.77;74.21;98390.38;5050125;28;20025;-72
2023/11/17 10:33:13;;;;;;;7.85;4.75;;;;;;;6.73;74.06;98405.22;5034747;28;20048;-71
2023/11/17 10:35:43;;;;;;;5.10;4.10;;;;;;;6.77;73.03;98406.41;5020049;28;20037;-71
2023/11/17 10:38:16;;;;;;;4.72;4.10;;;;;;;6.73;73.30;98399.03;5030633;28;20087;-71
2023/11/17 10:40:42;;;;;;;4.60;3.83;;;;;;;6.77;73.92;98408.28;5030147;28;20045;-71
2023/11/17 10:43:11;;;;;;;4.80;3.85;;;;;;;6.73;72.90;98394.50;5014897;28;20025;-71
2023/11/17 10:45:38;;;;;;;4.85;3.90;;;;;;;6.69;73.50;98404.00;5049927;28;20033;-71
2023/11/17 10:48:08;;;;;;;8.07;5.00;;;;;;;6.73;73.62;98391.84;5032638;28;20051;-72
2023/11/17 10:50:38;;;;;;;4.90;4.20;;;;;;;6.78;73.15;98413.44;5027192;28;20030;-72
2023/11/17 10:53:14;;;;;;;5.07;4.30;;;;;;;6.67;73.17;98408.78;5021276;28;20052;-72
2023/11/17 10:55:42;;;;;;;;;;;;;;;6.41;73.16;98403.53;5034746;28;20033;-71
2023/11/17 10:58:08;;;;;;;5.22;4.72;;;;;;;6.62;73.67;98402.41;5033912;28;20384;-72
2023/11/17 11:00:33;;;;;;;6.15;4.75;;;;;;;6.77;73.66;98410.94;5032933;28;20065;-71
2023/11/17 11:03:01;;;;;;;5.80;5.20;;;;;;;6.77;72.58;98390.38;5048966;28;20111;-72
2023/11/17 11:05:27;;;;;;;7.18;4.30;;;;;;;6.76;72.40;98394.09;5021281;28;20302;-71
2023/11/17 11:07:52;;;;;;;5.20;4.60;;;;;;;7.07;71.81;98411.19;5016097;28;20057;-72
2023/11/17 11:10:18;;;;;;;6.50;4.45;;;;;;;7.18;71.48;98410.50;5032818;28;20107;-71
2023/11/17 11:12:45;;;;;;;5.45;4.18;;;;;;;7.05;71.34;98405.25;5034004;28;20056;-71
2023/11/17 11:15:14;;;;;;;4.97;4.43;;;;;;;7.09;71.10;98414.47;5032690;28;20036;-71
2023/11/17 11:17:55;;;;;;;4.95;4.40;;;;;;;7.09;71.81;98414.47;5026705;28;20025;-71
2023/11/17 11:20:21;;;;;;;5.80;3.97;;;;;;;7.16;70.82;98408.03;5032353;28;20041;-72
2023/11/17 11:22:50;;;;;;;7.03;4.10;;;;;;;7.08;70.90;98412.81;5049083;28;20029;-72
2023/11/17 11:25:17;;;;;;;5.28;3.70;;;;;;;7.20;70.63;98405.72;5033785;28;20029;-72
2023/11/17 11:27:43;;;;;;;8.23;3.88;;;;;;;7.21;70.05;98402.81;5042692;28;20025;-72
2023/11/17 11:30:10;;;;;;;5.53;3.65;;;;;;;7.24;70.22;98418.47;5032714;28;20134;-72
2023/11/17 11:32:35;;;;;;;6.78;3.67;;;;;;;7.16;69.76;98409.88;5016738;28;20184;-72